Airfield :
LOGIN :

Register | Disclaimer

   EN    FR    IT 

 










Legend :    VFR   Marginal VFR   IFR   Intensive IFR   Very Intensive IFR
Visi :
Ceiling :
>= 8 km
>= 3000ft
5 to 8 km
1000 to 3000 ft
1500m to 5 km
500 to 1000 ft
800 to 1500m
200 to 500 ft
< 800m
< 200 ft
Symbols :   Thunderstorms  Fog  Heavy snow  Heavy precipitations  Wind > 20 kt
SIGMETs :     Misc.  Thunderstorms  Icing  Turbulence  Mountain Waves  Volcanic Ashes







- Airport Elevation : 512 ft
- IATA code : URO
- Download approach charts


LFOP - Rouen Vallée de Seine

CURRENT METAR :
  • 110000Z AUTO 07002KT 9999 FEW025 SCT110 04/03 Q1027

EXPIRED METARs :
  • 102330Z AUTO 00000KT CAVOK 04/03 Q1027
  • 102300Z AUTO 32002KT CAVOK 05/04 Q1027
  • 102230Z AUTO VRB02KT CAVOK 05/04 Q1027
  • 102200Z AUTO 26007KT 9999 FEW043 BKN110 06/05 Q1027 TEMPO 0300 FG VV///
  • 102130Z AUTO 28004KT 240V300 9999 FEW025 SCT038 OVC046 06/05 Q1028 TEMPO 0300 FG VV///

TAF TAF LFOP
Valid from the 10 at 18:00 until the 11 at 18:00 UTC


101700Z 1018/1118 29007KT 9999 BKN030
BECMG 1020/1023 3000 BR
PROB40 1023/1108 0300 FG VV///
BECMG 1108/1111 7000 NSW
ATIS : +33 2 35 80 80 34
Met : +33 2 32 86 52 80
No reported NOTAMs for that airfield.



MET'MAP, your aeronautical weather chart ! - Copyright ORBIFLY December 2007 - Disclaimer

ORBIFLY MET'MAP TEAM :

Programming & Development : Alexandra Zaïnal
Concept & Development : Baudouin d'Aumeries
Co-Development & Prog : Marc-Olivier Méhu
Technical & hardware support : Manuel Goepfert

Contact : metmap@orbifly.com




SOURCES & CREDITS :

   NOAA